Winlock, WA

5:53 AM PDT on August 20, 2014 (GMT -0700)
APRSWXNET Winlock WA US | Change Station
CLOSE
Current Station
Personal Weather Station
Location: Winlock, WA
Elevation: 450 ft
Nearby Weather Stations

Elev 450 ft 46.51 °N, 122.92 °W | Updated 38 minutes ago

Overcast
Overcast
50.0 °F
Feels Like 50.0 °F
N
0.0
Wind Variable Wind from West
Gusts 1.0 mph

Today
High -- | Low -- °F
--% Chance of Precip.
Yesterday
High -- | Low -- °F
Precip. -- in
6:16 AM 8:12 PM
Waning Crescent, 22% visible
Pressure 29.94 in
Visibility 10.0 miles
Clouds Scattered Clouds 2700 ft
Overcast 3300 ft
Dew Point 48.0 °F
Humidity 94%
Rainfall 0.00 in
Snow Depth Not available.
UV 0 out of 12
Pollen 3.10 out of 12
PM2.5 Good
Flu Activity Not available.
METAR KCLS 201235Z AUTO 00000KT 10SM SCT027 OVC033 13/12 A2994 RMK AO2

More Conditions Fewer Conditions

Pressure 29.94 in
Visibility 10.0 miles
Clouds Scattered Clouds 2700 ft
Overcast 3300 ft
Dew Point 48.0 °F
Humidity 94%
Rainfall 0.00 in
Snow Depth Not available.
UV 0 out of 12
Pollen 3.10 out of 12
PM2.5 Good
Flu Activity Not available.
METAR KCLS 201235Z AUTO 00000KT 10SM SCT027 OVC033 13/12 A2994 RMK AO2

More Conditions Fewer Conditions

10-Day Weather Forecast

Almanac

Astronomy

Aug. 20, 2014 Rise Set
Actual Time 6:16 AM PDT 8:12 PM PDT
Civil Twilight 5:44 AM PDT 8:44 PM PDT
Nautical Twilight 5:04 AM PDT 9:24 PM PDT
Astronomical Twilight 4:20 AM PDT 10:08 PM PDT
Moon 1:54 AM PDT 5:07 PM PDT
Length of Visible Light 15h 00m
Length of Day
13h 56m
Tomorrow will be 3m 3s shorter.
Waning Crescent, 22% of the Moon is Illuminated
Today
Waning Crescent
Aug 25
New
Sep 2
First Quarter
Sep 8
Full
Sep 15
Last Quarter

Today's Extremes

State Highs State Lows

Community

WunderPhotos

Upload Photos

1,745,618 photos uploaded!

Nearby

Air Quality

  Air Quality AQ Index Pollutant
Yesterday Good
PM2.5
Current Good
PM2.5

Snow Depth

Station Depth Elevation
Spirit Lake 0 in 3120 ft
Swift Creek 1 in 3770 ft
June Lake 0 in 3340 ft
Lone Pine 0 in 3800 ft
Spencer Meadow 0 in 3400 ft

Earthquake Activity

City Distance Mag. Time & Date
No recent earthquake activity has been reported nearby.
Minimum magnitude displayed is 2.5.

Coastal Water Temperatures

Place Temperature
Astoria, OR 68.0 °F
Westport, WA 57.9 °F

Nearby Weather Stations